Time;durP1;ratioP1;P1;durP2;ratioP2;P2;SDS_P1;SDS_P2;PMS_P1;PMS_P2;Temp;Humidity;BMP_temperature;BMP_pressure;BME280_temperature;BME280_humidity;BME280_pressure;Samples;Min_cycle;Max_cycle;Signal;HPM_P1;HPM_P2
2022/12/06 00:01:09;;;;;;;5.05;2.63;;;5.70;99.90;;;;;;5071098;28;20025;-62
2022/12/06 00:03:37;;;;;;;8.13;2.97;;;5.70;99.90;;;;;;5072436;28;20443;-62
2022/12/06 00:06:12;;;;;;;6.43;2.50;;;5.70;99.90;;;;;;5072391;28;20029;-62
2022/12/06 00:08:38;;;;;;;5.57;2.83;;;5.70;99.90;;;;;;5070600;28;20021;-62
2022/12/06 00:11:08;;;;;;;7.00;2.30;;;5.60;99.90;;;;;;5071675;28;20021;-61
2022/12/06 00:13:35;;;;;;;7.03;2.88;;;5.60;99.90;;;;;;5072239;28;20029;-62
2022/12/06 00:16:08;;;;;;;4.80;2.25;;;5.60;99.90;;;;;;5075826;28;20484;-61
2022/12/06 00:18:37;;;;;;;5.47;2.17;;;5.60;99.90;;;;;;5067259;28;20099;-61
2022/12/06 00:21:17;;;;;;;7.70;2.40;;;5.60;99.90;;;;;;5070452;28;20029;-62
2022/12/06 00:23:45;;;;;;;3.92;2.13;;;5.60;99.90;;;;;;5061020;28;20041;-62
2022/12/06 00:26:11;;;;;;;5.22;2.65;;;5.60;99.90;;;;;;5070032;28;20585;-62
2022/12/06 00:28:39;;;;;;;6.63;2.63;;;5.50;99.90;;;;;;5072279;28;20127;-61
2022/12/06 00:31:09;;;;;;;6.65;2.78;;;5.50;99.90;;;;;;5078023;28;20036;-63
2022/12/06 00:33:36;;;;;;;5.13;2.33;;;5.50;99.90;;;;;;5072263;28;20033;-61
2022/12/06 00:36:04;;;;;;;4.70;2.55;;;5.50;99.90;;;;;;5076266;28;20090;-62
2022/12/06 00:38:30;;;;;;;5.40;2.90;;;5.50;99.90;;;;;;5078740;28;20027;-62
2022/12/06 00:41:02;;;;;;;7.55;2.67;;;5.50;99.90;;;;;;5069485;28;20197;-62
2022/12/06 00:43:28;;;;;;;5.65;2.58;;;5.50;99.90;;;;;;5068514;28;20040;-63
2022/12/06 00:45:54;;;;;;;6.55;2.60;;;5.50;99.90;;;;;;5078589;28;20031;-62
2022/12/06 00:48:20;;;;;;;6.13;2.60;;;5.50;99.90;;;;;;5069077;28;20016;-62
2022/12/06 00:50:46;;;;;;;9.25;2.80;;;5.60;99.90;;;;;;5070947;28;20055;-62
2022/12/06 00:53:12;;;;;;;6.53;3.47;;;5.60;99.90;;;;;;5069917;28;20470;-62
2022/12/06 00:55:37;;;;;;;5.45;2.80;;;5.60;99.90;;;;;;5079121;28;20113;-63
2022/12/06 00:58:03;;;;;;;6.18;3.00;;;5.60;99.90;;;;;;5072900;28;20032;-61
2022/12/06 01:00:30;;;;;;;6.05;3.10;;;5.60;99.90;;;;;;5065589;28;20025;-62
2022/12/06 01:03:01;;;;;;;6.40;3.00;;;5.60;99.90;;;;;;5071313;28;20465;-63
2022/12/06 01:05:27;;;;;;;4.68;2.20;;;5.60;99.90;;;;;;5069359;28;20025;-62
2022/12/06 01:07:53;;;;;;;4.85;2.55;;;5.60;99.90;;;;;;5072076;28;20021;-62
2022/12/06 01:10:19;;;;;;;7.50;2.67;;;5.60;99.90;;;;;;5068688;28;20395;-62
2022/12/06 01:12:45;;;;;;;8.45;3.00;;;5.60;99.90;;;;;;5079391;28;20020;-63
2022/12/06 01:15:11;;;;;;;5.43;2.47;;;5.50;99.90;;;;;;5073643;28;20059;-63
2022/12/06 01:17:37;;;;;;;7.93;2.30;;;5.50;99.90;;;;;;5068740;28;20504;-63
2022/12/06 01:20:04;;;;;;;4.85;1.92;;;5.60;99.90;;;;;;5070726;28;20053;-63
2022/12/06 01:22:30;;;;;;;5.95;2.42;;;5.60;99.90;;;;;;5076194;28;20074;-62
2022/12/06 01:24:56;;;;;;;5.57;2.33;;;5.60;99.90;;;;;;5074160;28;20123;-62
2022/12/06 01:27:22;;;;;;;14.57;2.35;;;5.60;99.90;;;;;;5067750;28;20024;-62
2022/12/06 01:29:49;;;;;;;5.25;2.53;;;5.60;99.90;;;;;;5070217;28;20025;-63
2022/12/06 01:32:15;;;;;;;7.10;2.88;;;5.60;99.90;;;;;;5066903;28;20119;-63
2022/12/06 01:34:42;;;;;;;5.80;2.58;;;5.60;99.90;;;;;;5071319;28;20109;-62
2022/12/06 01:37:08;;;;;;;6.03;1.95;;;5.60;99.90;;;;;;5071919;28;20029;-62
2022/12/06 01:39:33;;;;;;;6.75;2.95;;;5.60;99.90;;;;;;5071249;28;20043;-63
2022/12/06 01:41:59;;;;;;;6.80;2.65;;;5.60;99.90;;;;;;5069748;28;20361;-61
2022/12/06 01:44:38;;;;;;;5.15;2.40;;;5.60;99.90;;;;;;5067926;28;20036;-63
2022/12/06 01:47:05;;;;;;;5.45;2.58;;;5.60;99.90;;;;;;5070277;28;20116;-63
2022/12/06 01:49:34;;;;;;;5.15;2.20;;;5.60;99.90;;;;;;5070034;28;20017;-62
2022/12/06 01:52:06;;;;;;;5.88;3.08;;;5.60;99.90;;;;;;5075910;28;20043;-61
2022/12/06 01:54:33;;;;;;;6.40;2.88;;;5.60;99.90;;;;;;5068484;28;20054;-62
2022/12/06 01:57:01;;;;;;;12.93;2.67;;;5.60;99.90;;;;;;5070642;28;20086;-61
2022/12/06 01:59:28;;;;;;;4.65;2.13;;;5.60;99.90;;;;;;5070091;28;20033;-63
2022/12/06 02:01:56;;;;;;;5.57;2.25;;;5.50;99.90;;;;;;5073720;28;20427;-63
2022/12/06 02:04:23;;;;;;;7.95;2.50;;;5.50;99.90;;;;;;5066367;28;20388;-63
2022/12/06 02:06:51;;;;;;;4.65;2.72;;;5.40;99.90;;;;;;5069783;28;20033;-62
2022/12/06 02:09:19;;;;;;;7.25;2.78;;;5.20;99.90;;;;;;5072525;28;20035;-62
2022/12/06 02:11:46;;;;;;;4.70;2.33;;;5.10;99.90;;;;;;5069630;28;20062;-62
2022/12/06 02:14:21;;;;;;;6.18;2.78;;;5.00;99.90;;;;;;5068214;28;20476;-63
2022/12/06 02:16:57;;;;;;;4.78;2.38;;;4.90;99.90;;;;;;5067880;28;20029;-62
2022/12/06 02:19:42;;;;;;;5.35;2.70;;;4.80;99.90;;;;;;5067078;28;20082;-62
2022/12/06 02:22:44;;;;;;;4.20;2.13;;;4.70;99.90;;;;;;5070944;28;20056;-60
2022/12/06 02:25:45;;;;;;;6.53;2.38;;;4.60;99.90;;;;;;5067671;28;20032;-62
2022/12/06 02:28:42;;;;;;;2.80;1.88;;;4.50;99.90;;;;;;5062266;28;20047;-62
2022/12/06 02:31:15;;;;;;;4.20;2.20;;;4.40;99.90;;;;;;5072152;28;20039;-62
2022/12/06 02:33:42;;;;;;;9.77;2.50;;;4.50;99.90;;;;;;5071080;28;20468;-62
2022/12/06 02:36:37;;;;;;;6.38;3.20;;;4.40;99.90;;;;;;5073368;28;20086;-60
2022/12/06 02:39:21;;;;;;;9.77;1.70;;;4.50;99.90;;;;;;5054279;28;20032;-63
2022/12/06 02:42:05;;;;;;;6.10;2.17;;;4.50;99.90;;;;;;5069373;28;20028;-62
2022/12/06 02:44:56;;;;;;;7.22;2.60;;;4.50;99.90;;;;;;5065640;28;20032;-62
2022/12/06 02:47:29;;;;;;;3.42;2.22;;;4.50;99.90;;;;;;5061454;28;20020;-61
2022/12/06 02:49:57;;;;;;;3.95;2.05;;;4.50;99.90;;;;;;5065784;28;20017;-61
2022/12/06 02:52:27;;;;;;;4.65;2.40;;;4.40;99.90;;;;;;5067992;28;20123;-66
2022/12/06 02:55:00;;;;;;;7.80;2.38;;;4.40;99.90;;;;;;5079457;28;20032;-62
2022/12/06 02:57:58;;;;;;;5.95;2.15;;;4.30;99.90;;;;;;5076987;28;20028;-63
2022/12/06 03:00:33;;;;;;;4.60;2.05;;;4.30;99.90;;;;;;5070140;28;20397;-62
2022/12/06 03:03:22;;;;;;;4.78;2.47;;;4.30;99.90;;;;;;5073774;28;20486;-64
2022/12/06 03:06:04;;;;;;;5.75;2.38;;;4.20;99.90;;;;;;5085765;28;20032;-61
2022/12/06 03:08:57;;;;;;;6.87;2.27;;;4.10;99.90;;;;;;5068870;28;20035;-62
2022/12/06 03:11:28;;;;;;;5.90;2.45;;;4.00;99.90;;;;;;5062834;28;20472;-62
2022/12/06 03:14:01;;;;;;;7.13;2.37;;;3.90;99.90;;;;;;5066392;28;20052;-62
2022/12/06 03:16:34;;;;;;;5.72;2.30;;;3.70;99.90;;;;;;5076661;28;20450;-62
2022/12/06 03:19:18;;;;;;;7.07;1.83;;;3.70;99.90;;;;;;5077020;28;20123;-62
2022/12/06 03:22:02;;;;;;;4.00;2.13;;;3.60;99.90;;;;;;5074903;28;20037;-62
2022/12/06 03:24:32;;;;;;;8.15;2.80;;;3.60;99.90;;;;;;5067083;28;20041;-62
2022/12/06 03:27:03;;;;;;;5.22;2.03;;;3.50;99.90;;;;;;5075780;28;20079;-62
2022/12/06 03:29:32;;;;;;;7.82;2.13;;;3.50;99.90;;;;;;5068892;28;20035;-62
2022/12/06 03:32:03;;;;;;;3.58;2.00;;;3.40;99.90;;;;;;5080031;28;20095;-62
2022/12/06 03:34:34;;;;;;;4.45;2.65;;;3.30;99.90;;;;;;5062577;28;20032;-63
2022/12/06 03:37:03;;;;;;;7.55;2.03;;;3.20;99.90;;;;;;5070692;28;20034;-63
2022/12/06 03:39:38;;;;;;;4.43;2.45;;;3.30;99.90;;;;;;5068542;28;20036;-61
2022/12/06 03:42:04;;;;;;;7.85;2.33;;;3.20;99.90;;;;;;5071728;28;20116;-61
2022/12/06 03:44:30;;;;;;;6.43;2.22;;;3.10;99.90;;;;;;5070814;28;20086;-62
2022/12/06 03:47:03;;;;;;;5.65;2.25;;;3.10;99.90;;;;;;5071667;28;20021;-62
2022/12/06 03:49:44;;;;;;;6.30;1.95;;;3.00;99.90;;;;;;5067284;28;20037;-61
2022/12/06 03:52:10;;;;;;;7.25;2.30;;;2.90;99.90;;;;;;5066031;28;20158;-62
2022/12/06 03:54:38;;;;;;;6.03;2.05;;;2.90;99.90;;;;;;5072076;28;20119;-62
2022/12/06 03:57:04;;;;;;;4.18;2.00;;;2.90;99.90;;;;;;5073013;28;20066;-62
2022/12/06 03:59:30;;;;;;;4.43;1.98;;;2.80;99.90;;;;;;5073446;28;20016;-62
2022/12/06 04:01:56;;;;;;;7.03;2.35;;;2.70;99.90;;;;;;5070869;28;20020;-62
2022/12/06 04:04:23;;;;;;;4.90;1.90;;;2.70;99.90;;;;;;5069925;28;20070;-61
2022/12/06 04:06:50;;;;;;;7.00;2.10;;;2.70;99.90;;;;;;5072721;28;20086;-62
2022/12/06 04:12:00;;;;;;;12.02;3.08;;;2.70;99.90;;;;;;5077862;28;20517;-62
2022/12/06 04:14:31;;;;;;;8.98;3.10;;;2.70;99.90;;;;;;5073471;28;20021;-62
2022/12/06 04:19:45;;;;;;;4.88;2.50;;;2.70;99.90;;;;;;5065097;28;20037;-62
2022/12/06 04:24:55;;;;;;;12.05;2.55;;;2.60;99.90;;;;;;5068516;28;20055;-62
2022/12/06 04:41:04;;;;;;;4.95;2.25;;;2.50;99.90;;;;;;5073474;28;20110;-62
2022/12/06 04:43:41;;;;;;;5.18;2.10;;;2.50;99.90;;;;;;5068409;28;20095;-62
2022/12/06 04:46:14;;;;;;;5.28;2.42;;;2.50;99.90;;;;;;5072648;28;20051;-62
2022/12/06 04:48:40;;;;;;;4.45;2.53;;;2.50;99.90;;;;;;5068920;28;20028;-61
2022/12/06 04:51:11;;;;;;;4.03;2.03;;;2.50;99.90;;;;;;5075634;28;20027;-62
2022/12/06 04:53:37;;;;;;;6.80;2.60;;;2.50;99.90;;;;;;5082295;28;20095;-61
2022/12/06 04:56:03;;;;;;;6.13;2.58;;;2.50;99.90;;;;;;5071740;28;20021;-61
2022/12/06 04:58:29;;;;;;;7.55;2.22;;;2.50;99.90;;;;;;5071011;28;20107;-62
2022/12/06 05:00:55;;;;;;;8.43;3.20;;;2.60;99.90;;;;;;5073018;28;20161;-61
2022/12/06 05:03:20;;;;;;;4.68;2.30;;;2.60;99.90;;;;;;5076857;28;20447;-61
2022/12/06 05:05:46;;;;;;;8.30;2.40;;;2.50;99.90;;;;;;5070796;28;20078;-60
2022/12/06 05:08:12;;;;;;;8.65;3.00;;;2.50;99.90;;;;;;5069458;28;20021;-62
2022/12/06 05:10:38;;;;;;;6.00;2.25;;;2.50;99.90;;;;;;5070882;28;20024;-62
2022/12/06 05:13:04;;;;;;;5.40;2.90;;;2.50;99.90;;;;;;5070673;28;20021;-61
2022/12/06 05:15:30;;;;;;;7.72;2.50;;;2.50;99.90;;;;;;5069763;28;20127;-62
2022/12/06 05:17:56;;;;;;;9.38;2.50;;;2.50;99.90;;;;;;5074309;28;20122;-61
2022/12/06 05:20:22;;;;;;;5.82;2.58;;;2.50;99.90;;;;;;5069229;28;20119;-62
2022/12/06 05:22:49;;;;;;;4.75;2.35;;;2.50;99.90;;;;;;5070937;28;20051;-61
2022/12/06 05:25:15;;;;;;;8.00;2.75;;;2.40;99.90;;;;;;5082632;28;20028;-61
2022/12/06 05:27:41;;;;;;;7.18;2.80;;;2.40;99.90;;;;;;5073344;28;20115;-61
2022/12/06 05:30:08;;;;;;;4.75;2.58;;;2.40;99.90;;;;;;5076359;28;20111;-61
2022/12/06 05:32:34;;;;;;;6.43;2.63;;;2.30;99.90;;;;;;5077823;28;20024;-62
2022/12/06 05:34:59;;;;;;;8.02;2.60;;;2.30;99.90;;;;;;5071065;28;20037;-61
2022/12/06 05:37:25;;;;;;;5.20;2.47;;;2.30;99.90;;;;;;5062366;28;20029;-61
2022/12/06 05:39:51;;;;;;;6.28;3.05;;;2.30;99.90;;;;;;5068511;28;20053;-62
2022/12/06 05:42:17;;;;;;;5.68;2.28;;;2.30;99.90;;;;;;5067656;28;20507;-62
2022/12/06 05:44:42;;;;;;;6.93;3.00;;;2.30;99.90;;;;;;5071784;28;20376;-62
2022/12/06 05:47:09;;;;;;;7.45;2.78;;;2.40;99.90;;;;;;5065823;28;20029;-61
2022/12/06 05:49:42;;;;;;;8.52;3.03;;;2.30;99.90;;;;;;5072440;28;20086;-62
2022/12/06 05:52:09;;;;;;;7.50;2.80;;;2.30;99.90;;;;;;5067912;28;20484;-61
2022/12/06 05:54:35;;;;;;;7.95;3.35;;;2.30;99.90;;;;;;5069395;28;20044;-61
2022/12/06 05:57:01;;;;;;;5.47;2.28;;;2.30;99.90;;;;;;5075789;28;20482;-61
2022/12/06 05:59:26;;;;;;;10.60;3.35;;;2.30;99.90;;;;;;5070320;28;20047;-62
2022/12/06 06:01:52;;;;;;;6.13;2.70;;;2.30;99.90;;;;;;5069396;28;20476;-62
2022/12/06 06:04:18;;;;;;;7.38;2.47;;;2.30;99.90;;;;;;5068883;28;20035;-62
2022/12/06 06:06:44;;;;;;;7.88;3.00;;;2.30;99.90;;;;;;5076618;28;20116;-61
2022/12/06 06:09:10;;;;;;;8.40;3.20;;;2.20;99.90;;;;;;5069717;28;20079;-62
2022/12/06 06:11:35;;;;;;;5.32;2.13;;;2.30;99.90;;;;;;5069611;28;20035;-62
2022/12/06 06:14:01;;;;;;;8.85;3.15;;;2.30;99.90;;;;;;5070691;28;20032;-61
2022/12/06 06:16:27;;;;;;;7.55;2.60;;;2.40;99.90;;;;;;5076964;28;20491;-60
2022/12/06 06:19:00;;;;;;;8.70;3.13;;;2.40;99.90;;;;;;5071488;28;20025;-62
2022/12/06 06:21:28;;;;;;;10.02;3.40;;;2.40;99.90;;;;;;5067311;28;20040;-61
2022/12/06 06:23:58;;;;;;;9.20;3.08;;;2.40;99.90;;;;;;5068389;28;20055;-61
2022/12/06 06:26:25;;;;;;;7.75;3.45;;;2.40;99.90;;;;;;5062906;28;20044;-62
2022/12/06 06:28:51;;;;;;;7.95;2.60;;;2.40;99.90;;;;;;5067767;28;20032;-61
2022/12/06 06:31:18;;;;;;;11.52;2.85;;;2.40;99.90;;;;;;5068021;28;20021;-62
2022/12/06 06:33:44;;;;;;;8.82;3.35;;;2.40;99.90;;;;;;5069832;28;20392;-62
2022/12/06 06:36:11;;;;;;;9.90;3.33;;;2.40;99.90;;;;;;5067753;28;20475;-63
2022/12/06 06:38:38;;;;;;;6.00;3.45;;;2.40;99.90;;;;;;5064037;28;20554;-61
2022/12/06 06:41:06;;;;;;;6.93;3.17;;;2.40;99.90;;;;;;5063884;28;20040;-62
2022/12/06 06:43:37;;;;;;;9.70;3.60;;;2.40;99.90;;;;;;5067831;28;20119;-62
2022/12/06 06:46:06;;;;;;;8.45;2.75;;;2.30;99.90;;;;;;5067532;28;20469;-61
2022/12/06 06:48:38;;;;;;;4.85;2.92;;;2.20;99.90;;;;;;5066231;28;20033;-61
2022/12/06 06:51:09;;;;;;;7.75;2.90;;;2.20;99.90;;;;;;5070268;28;20028;-62
2022/12/06 06:53:36;;;;;;;9.98;3.08;;;2.30;99.90;;;;;;5067562;28;20028;-62
2022/12/06 06:56:02;;;;;;;10.88;3.40;;;2.20;99.90;;;;;;5061027;28;20112;-60
2022/12/06 06:58:28;;;;;;;7.50;3.45;;;2.30;99.90;;;;;;5067534;28;20135;-62
2022/12/06 07:00:56;;;;;;;6.80;2.95;;;2.40;99.90;;;;;;5064407;28;20116;-62
2022/12/06 07:03:23;;;;;;;5.88;3.10;;;2.40;99.90;;;;;;5066949;28;20115;-62
2022/12/06 07:05:54;;;;;;;11.68;3.50;;;2.50;99.90;;;;;;5075566;28;20076;-62
2022/12/06 07:08:20;;;;;;;9.43;4.20;;;2.50;99.90;;;;;;5072643;28;20086;-63
2022/12/06 07:10:47;;;;;;;8.95;3.55;;;2.60;99.90;;;;;;5070782;28;20013;-62
2022/12/06 07:13:17;;;;;;;6.53;3.60;;;2.60;99.90;;;;;;5067569;28;20063;-61
2022/12/06 07:15:43;;;;;;;7.00;3.03;;;2.60;99.90;;;;;;5070925;28;20031;-61
2022/12/06 07:18:09;;;;;;;9.10;3.72;;;2.60;99.90;;;;;;5067595;28;20070;-63
2022/12/06 07:20:35;;;;;;;9.40;3.22;;;2.60;99.90;;;;;;5076342;28;20025;-62
2022/12/06 07:23:01;;;;;;;10.05;3.70;;;2.70;99.90;;;;;;5070547;28;20131;-61
2022/12/06 07:25:27;;;;;;;14.23;4.72;;;2.70;99.90;;;;;;5067866;28;20123;-62
2022/12/06 07:27:53;;;;;;;7.63;3.75;;;2.70;99.90;;;;;;5062792;28;20021;-62
2022/12/06 07:30:18;;;;;;;9.90;3.40;;;2.70;99.90;;;;;;5076737;28;20043;-62
2022/12/06 07:32:44;;;;;;;6.07;3.30;;;2.70;99.90;;;;;;5069768;28;20048;-62
2022/12/06 07:35:10;;;;;;;10.02;3.47;;;2.70;99.90;;;;;;5069762;28;20098;-61
2022/12/06 07:37:36;;;;;;;10.25;4.43;;;2.70;99.90;;;;;;5062480;28;20108;-61
2022/12/06 07:40:01;;;;;;;10.48;4.05;;;2.70;99.90;;;;;;5078550;28;20123;-61
2022/12/06 07:45:13;;;;;;;8.50;4.07;;;2.80;99.90;;;;;;5071596;28;20177;-63
2022/12/06 07:47:41;;;;;;;9.32;3.70;;;2.80;99.90;;;;;;5075161;28;20028;-62
2022/12/06 07:50:10;;;;;;;10.20;4.03;;;2.80;99.90;;;;;;5073531;28;20033;-63
2022/12/06 07:52:36;;;;;;;8.25;4.15;;;2.80;99.90;;;;;;5070266;28;20025;-62
2022/12/06 07:55:03;;;;;;;7.30;3.55;;;2.80;99.90;;;;;;5072312;28;20116;-62
2022/12/06 07:57:29;;;;;;;8.25;4.40;;;2.80;99.90;;;;;;5063877;28;20020;-61
2022/12/06 07:59:55;;;;;;;9.80;4.22;;;2.80;99.90;;;;;;5072494;28;20035;-62
2022/12/06 08:02:25;;;;;;;12.27;3.78;;;2.80;99.90;;;;;;5070623;28;20074;-61
2022/12/06 08:04:51;;;;;;;9.88;6.03;;;2.80;99.90;;;;;;5072289;28;20476;-61
2022/12/06 08:07:18;;;;;;;6.95;3.70;;;2.90;99.90;;;;;;5066939;28;20029;-61
2022/12/06 08:09:43;;;;;;;5.97;3.42;;;2.80;99.90;;;;;;5068764;28;20021;-62
2022/12/06 08:12:09;;;;;;;10.02;4.25;;;2.90;99.90;;;;;;5069262;28;20111;-61
2022/12/06 08:14:36;;;;;;;8.95;3.22;;;2.90;99.90;;;;;;5072308;28;20041;-62
2022/12/06 08:17:03;;;;;;;5.10;3.83;;;3.00;99.90;;;;;;5072024;28;20028;-62
2022/12/06 08:19:29;;;;;;;24.65;10.10;;;3.00;99.90;;;;;;5070602;28;20075;-61
2022/12/06 08:21:56;;;;;;;10.70;4.63;;;3.10;99.90;;;;;;5069743;28;20076;-61
2022/12/06 08:24:21;;;;;;;9.20;4.53;;;3.20;99.90;;;;;;5069020;28;20392;-62
2022/12/06 08:26:48;;;;;;;15.75;5.82;;;3.20;99.90;;;;;;5071509;28;20028;-61
2022/12/06 08:29:14;;;;;;;7.22;3.17;;;3.20;99.90;;;;;;5069901;28;20067;-61
2022/12/06 08:31:40;;;;;;;12.10;5.00;;;3.20;99.90;;;;;;5059623;28;20074;-61
2022/12/06 08:34:06;;;;;;;7.90;3.35;;;3.30;99.90;;;;;;5067416;28;20048;-62
2022/12/06 08:36:32;;;;;;;9.75;3.78;;;3.30;99.90;;;;;;5063319;28;20048;-61
2022/12/06 08:38:59;;;;;;;10.40;3.20;;;3.40;99.90;;;;;;5067370;28;20161;-62
2022/12/06 08:44:13;;;;;;;10.07;4.30;;;3.40;99.90;;;;;;5064387;28;20031;-60
2022/12/06 08:46:39;;;;;;;7.60;3.55;;;3.50;99.90;;;;;;5062697;28;20031;-62
2022/12/06 08:49:05;;;;;;;8.50;4.43;;;3.60;99.90;;;;;;5069539;28;20109;-60
2022/12/06 08:51:33;;;;;;;9.63;3.90;;;3.60;99.90;;;;;;5061270;28;20457;-61
2022/12/06 08:53:59;;;;;;;17.58;4.35;;;3.60;99.90;;;;;;5067657;28;20049;-62
2022/12/06 08:56:25;;;;;;;8.65;3.47;;;3.70;99.90;;;;;;5065215;28;20077;-62
2022/12/06 08:58:53;;;;;;;7.72;3.38;;;3.80;99.90;;;;;;5063743;28;20025;-61
2022/12/06 09:01:25;;;;;;;10.27;3.13;;;3.80;99.90;;;;;;5053320;28;20032;-62
2022/12/06 09:03:52;;;;;;;12.00;3.63;;;3.80;99.90;;;;;;5057027;28;20027;-61
2022/12/06 09:06:19;;;;;;;7.97;3.25;;;3.80;99.90;;;;;;5066952;28;20033;-62
2022/12/06 09:08:45;;;;;;;7.78;4.03;;;3.90;99.90;;;;;;5063266;28;20021;-61
2022/12/06 09:11:11;;;;;;;8.48;3.20;;;4.00;99.90;;;;;;5068420;28;20032;-64
2022/12/06 09:13:38;;;;;;;11.32;4.32;;;4.00;99.90;;;;;;5071076;28;20089;-61
2022/12/06 09:16:12;;;;;;;11.57;4.50;;;4.10;99.90;;;;;;5064677;28;20033;-61
2022/12/06 09:18:38;;;;;;;8.38;2.70;;;4.10;99.90;;;;;;5068699;28;20501;-63
2022/12/06 09:21:11;;;;;;;14.10;3.92;;;4.20;99.90;;;;;;5059615;28;20180;-62
2022/12/06 09:23:37;;;;;;;13.88;5.53;;;4.20;99.90;;;;;;5066203;28;20120;-62
2022/12/06 09:26:04;;;;;;;9.32;4.00;;;4.20;99.90;;;;;;5063195;28;20055;-61
2022/12/06 09:28:32;;;;;;;6.85;2.75;;;4.30;99.90;;;;;;5066883;28;20033;-61
2022/12/06 09:30:58;;;;;;;35.05;15.13;;;4.40;99.90;;;;;;5065832;28;20056;-61
2022/12/06 09:33:24;;;;;;;11.85;5.20;;;4.40;99.90;;;;;;5069452;28;20059;-61
2022/12/06 09:35:50;;;;;;;19.70;5.07;;;4.50;99.90;;;;;;5067154;28;20028;-62
2022/12/06 09:38:17;;;;;;;23.63;13.32;;;4.60;99.90;;;;;;5069949;28;20083;-62
2022/12/06 09:40:59;;;;;;;17.85;5.15;;;4.70;99.90;;;;;;5070758;28;20032;-61
2022/12/06 09:43:43;;;;;;;11.40;4.32;;;4.80;99.90;;;;;;5074749;28;20023;-61
2022/12/06 09:47:06;;;;;;;8.82;2.97;;;4.90;99.90;;;;;;5060488;28;20029;-62
2022/12/06 09:49:44;;;;;;;;;;;4.80;99.90;;;;;;5045500;28;20032;-61
2022/12/06 09:52:31;;;;;;;8.98;2.50;;;4.80;99.90;;;;;;5050384;28;19908;-60
2022/12/06 09:55:34;;;;;;;17.20;6.47;;;4.80;99.90;;;;;;5048907;28;20381;-62
2022/12/06 09:58:26;;;;;;;12.95;5.57;;;4.80;99.90;;;;;;5050626;28;20493;-61
2022/12/06 10:01:18;;;;;;;18.73;3.08;;;4.90;99.90;;;;;;5052904;28;20132;-61
2022/12/06 10:03:43;;;;;;;10.95;2.05;;;4.90;99.90;;;;;;5048085;28;20033;-61
2022/12/06 10:06:15;;;;;;;12.93;4.07;;;4.90;99.90;;;;;;5052365;28;20029;-60
2022/12/06 10:08:55;;;;;;;7.10;2.88;;;5.00;99.90;;;;;;5047188;28;20510;-61
2022/12/06 10:11:31;;;;;;;10.75;4.15;;;4.90;99.90;;;;;;5044633;28;20029;-63
2022/12/06 10:14:18;;;;;;;39.97;19.67;;;5.00;99.90;;;;;;5063021;28;20047;-62
2022/12/06 10:17:08;;;;;;;16.85;7.22;;;5.10;99.90;;;;;;5053507;28;20020;-62
2022/12/06 10:19:59;;;;;;;9.65;3.90;;;5.10;99.90;;;;;;5055914;28;20033;-62
2022/12/06 10:22:50;;;;;;;12.15;2.58;;;5.20;99.90;;;;;;5066199;28;20441;-61
2022/12/06 10:25:24;;;;;;;5.95;1.70;;;5.20;99.90;;;;;;5058958;28;20024;-62
2022/12/06 10:27:59;;;;;;;21.27;2.92;;;5.10;99.90;;;;;;5064596;28;21311;-62
2022/12/06 10:30:25;;;;;;;14.95;2.67;;;5.20;99.90;;;;;;5067127;28;20028;-62
2022/12/06 10:33:20;;;;;;;8.80;2.20;;;5.20;99.90;;;;;;5068097;28;20507;-62
2022/12/06 10:36:00;;;;;;;14.85;2.60;;;5.20;99.90;;;;;;5065417;28;20044;-62
2022/12/06 10:38:32;;;;;;;12.10;1.85;;;5.20;99.90;;;;;;5061431;28;20079;-64
2022/12/06 10:41:10;;;;;;;15.70;2.83;;;5.20;99.90;;;;;;5066326;28;20041;-61
2022/12/06 10:43:56;;;;;;;13.18;3.72;;;5.30;99.90;;;;;;5065423;28;20151;-61
2022/12/06 10:47:06;;;;;;;24.63;8.05;;;5.30;99.90;;;;;;5063534;28;20036;-62
2022/12/06 10:49:58;;;;;;;15.63;2.65;;;5.40;99.90;;;;;;5062425;28;20029;-62
2022/12/06 10:52:42;;;;;;;;;;;5.50;99.90;;;;;;5063019;28;20025;-60
2022/12/06 10:55:08;;;;;;;18.17;5.50;;;5.60;99.90;;;;;;5063627;28;19924;-62
2022/12/06 10:58:11;;;;;;;23.98;2.67;;;5.90;99.90;;;;;;5071039;28;20453;-61
2022/12/06 11:00:48;;;;;;;13.00;1.70;;;6.10;99.90;;;;;;5059032;28;20388;-61
2022/12/06 11:03:19;;;;;;;6.57;1.50;;;6.20;99.90;;;;;;5060506;28;20036;-61
2022/12/06 11:05:45;;;;;;;9.25;1.23;;;6.30;99.90;;;;;;5069838;28;20103;-61
2022/12/06 11:08:32;;;;;;;10.70;2.20;;;6.40;99.90;;;;;;5068167;28;20394;-60
2022/12/06 11:11:01;;;;;;;9.68;2.10;;;6.40;99.90;;;;;;5060243;28;20488;-63
2022/12/06 11:13:42;;;;;;;7.60;2.63;;;6.50;99.90;;;;;;5058087;28;20029;-62
2022/12/06 11:16:30;;;;;;;6.82;1.70;;;6.60;99.90;;;;;;5068886;28;20029;-62
2022/12/06 11:19:05;;;;;;;4.05;2.00;;;6.80;99.90;;;;;;5069350;28;20484;-62
2022/12/06 11:21:42;;;;;;;8.73;2.17;;;7.00;99.90;;;;;;5071846;28;20044;-62
2022/12/06 11:24:25;;;;;;;7.60;1.52;;;7.10;99.90;;;;;;5072834;28;20033;-62
2022/12/06 11:26:59;;;;;;;11.15;1.92;;;7.30;99.90;;;;;;5067843;28;20032;-61
2022/12/06 11:29:24;;;;;;;11.50;2.92;;;7.40;99.90;;;;;;5069502;28;20395;-61
2022/12/06 11:32:01;;;;;;;6.63;1.90;;;7.40;99.90;;;;;;5058361;28;20074;-61
2022/12/06 11:34:34;;;;;;;10.10;1.85;;;7.40;99.90;;;;;;5059014;28;20102;-62
2022/12/06 11:37:02;;;;;;;18.00;2.80;;;7.60;99.90;;;;;;5068995;28;20044;-61
2022/12/06 11:39:30;;;;;;;6.28;1.30;;;7.90;99.90;;;;;;5064942;28;20033;-63
2022/12/06 11:41:59;;;;;;;6.95;1.20;;;8.50;99.90;;;;;;5054903;28;20017;-62
2022/12/06 11:44:27;;;;;;;10.07;2.35;;;8.80;99.90;;;;;;5067348;28;20047;-61
2022/12/06 11:46:59;;;;;;;12.38;3.80;;;8.60;99.90;;;;;;5060196;28;20021;-61
2022/12/06 11:49:31;;;;;;;6.07;2.70;;;8.30;99.90;;;;;;5066585;28;20099;-61
2022/12/06 11:52:02;;;;;;;7.10;2.30;;;8.10;99.90;;;;;;5071271;28;20027;-61
2022/12/06 11:54:37;;;;;;;13.63;3.28;;;8.00;99.90;;;;;;5061921;28;20048;-62
2022/12/06 11:57:27;;;;;;;17.48;2.30;;;7.90;99.90;;;;;;5069671;28;20033;-61
2022/12/06 12:00:12;;;;;;;4.72;2.08;;;7.90;99.90;;;;;;5064815;28;20442;-62
2022/12/06 12:02:40;;;;;;;4.88;1.55;;;7.70;99.90;;;;;;5062640;28;20455;-63
2022/12/06 12:05:37;;;;;;;6.70;1.30;;;8.00;99.90;;;;;;5060705;28;20393;-63
2022/12/06 12:08:18;;;;;;;13.13;2.13;;;8.00;99.90;;;;;;5061549;28;20120;-61
2022/12/06 12:10:45;;;;;;;2.03;1.23;;;8.10;99.90;;;;;;5064173;28;20071;-62
2022/12/06 12:15:59;;;;;;;7.07;1.90;;;9.20;99.90;;;;;;5064810;28;20063;-62
2022/12/06 12:18:30;;;;;;;6.15;1.98;;;9.40;99.90;;;;;;5065429;28;20016;-63
2022/12/06 12:20:57;;;;;;;2.53;0.75;;;9.10;99.90;;;;;;5061623;28;20493;-61
2022/12/06 12:23:29;;;;;;;5.13;1.40;;;8.80;99.90;;;;;;5066908;28;20028;-61
2022/12/06 12:26:17;;;;;;;13.27;1.92;;;8.60;99.90;;;;;;5068046;28;20056;-61
2022/12/06 12:29:00;;;;;;;13.32;2.20;;;8.40;99.90;;;;;;5066149;28;20074;-62
2022/12/06 12:31:25;;;;;;;;;;;8.40;99.90;;;;;;5064971;28;20036;-62
2022/12/06 12:34:19;;;;;;;3.85;1.08;;;8.30;99.90;;;;;;5067847;28;19924;-63
2022/12/06 12:37:01;;;;;;;6.20;1.20;;;8.40;99.90;;;;;;5065445;28;20025;-61
2022/12/06 12:39:31;;;;;;;7.32;1.30;;;8.30;99.90;;;;;;5059809;28;20020;-62
2022/12/06 12:41:58;;;;;;;4.93;1.10;;;8.30;99.90;;;;;;5060458;28;20048;-62
2022/12/06 12:44:30;;;;;;;3.78;0.90;;;8.40;99.90;;;;;;5069964;28;20119;-63
2022/12/06 12:47:17;;;;;;;7.40;1.30;;;8.50;99.90;;;;;;5068239;28;20070;-61
2022/12/06 12:49:56;;;;;;;8.15;1.55;;;8.50;99.90;;;;;;5066194;28;20032;-62
2022/12/06 12:52:34;;;;;;;5.93;1.13;;;8.80;99.90;;;;;;5060408;28;20147;-65
2022/12/06 12:55:18;;;;;;;6.50;1.10;;;9.60;99.90;;;;;;5061939;28;20040;-63
2022/12/06 12:57:47;;;;;;;3.10;1.42;;;10.40;99.90;;;;;;5057055;28;20033;-63
2022/12/06 13:00:21;;;;;;;3.35;0.85;;;10.60;99.90;;;;;;5061332;28;20032;-62
2022/12/06 13:03:09;;;;;;;6.38;1.80;;;10.30;99.90;;;;;;5067422;28;20029;-62
2022/12/06 13:05:37;;;;;;;10.75;2.20;;;9.60;99.90;;;;;;5065328;28;20094;-63
2022/12/06 13:08:32;;;;;;;11.60;2.28;;;9.40;99.90;;;;;;5067906;28;20017;-63
2022/12/06 13:11:00;;;;;;;6.47;1.00;;;9.90;99.90;;;;;;5065026;28;20044;-63
2022/12/06 13:13:35;;;;;;;8.13;1.40;;;10.40;99.90;;;;;;5063970;28;20155;-62
2022/12/06 13:16:02;;;;;;;3.40;0.80;;;10.90;99.90;;;;;;5067914;28;20134;-62
2022/12/06 13:18:41;;;;;;;1.67;0.60;;;11.40;99.90;;;;;;5069337;28;20162;-62
2022/12/06 13:21:21;;;;;;;1.40;0.70;;;11.60;99.90;;;;;;5067422;28;20041;-62
2022/12/06 13:23:52;;;;;;;1.83;0.93;;;11.80;99.90;;;;;;5062334;28;20709;-62
2022/12/06 13:26:27;;;;;;;2.75;0.70;;;12.10;99.90;;;;;;5066602;28;20120;-62
2022/12/06 13:29:00;;;;;;;1.85;0.63;;;12.20;99.90;;;;;;5066509;28;20013;-62
2022/12/06 13:31:35;;;;;;;4.43;1.10;;;12.80;99.90;;;;;;5061056;28;20152;-63
2022/12/06 13:34:18;;;;;;;3.60;1.00;;;12.90;99.90;;;;;;5068313;28;20040;-63
2022/12/06 13:36:45;;;;;;;5.85;1.30;;;12.80;99.90;;;;;;5066083;28;20029;-62
2022/12/06 13:39:29;;;;;;;11.38;1.80;;;12.60;99.90;;;;;;5065512;28;20029;-61
2022/12/06 13:44:58;;;;;;;8.48;1.60;;;12.80;99.90;;;;;;5061806;28;20043;-62
2022/12/06 13:47:27;;;;;;;6.38;1.50;;;12.90;99.90;;;;;;5067875;28;20021;-61
2022/12/06 13:50:20;;;;;;;5.30;0.98;;;12.90;99.90;;;;;;5068921;28;20557;-62
2022/12/06 13:52:45;;;;;;;2.65;0.70;;;12.80;99.90;;;;;;5066799;28;20033;-62